createdAt,value
2022-12-08T00:08:08.794Z,3.3
2022-12-08T00:18:11.125Z,3.4
2022-12-08T00:28:12.900Z,3.5
2022-12-08T00:38:14.833Z,3.5
2022-12-08T00:48:17.532Z,3.4
2022-12-08T00:58:19.226Z,3.4
2022-12-08T01:08:21.509Z,3.4
2022-12-08T01:18:23.087Z,3.5
2022-12-08T01:28:25.608Z,3.6
2022-12-08T01:38:28.223Z,3.7
2022-12-08T01:48:30.655Z,3.7
2022-12-08T01:58:32.538Z,3.7
2022-12-08T02:08:35.041Z,3.7
2022-12-08T02:18:37.041Z,3.7
2022-12-08T02:28:39.369Z,3.6
2022-12-08T02:38:41.025Z,3.6
2022-12-08T02:48:42.796Z,3.6
2022-12-08T02:58:44.555Z,3.6
2022-12-08T03:18:48.550Z,3.6
2022-12-08T03:28:51.015Z,3.7
2022-12-08T03:38:53.693Z,3.7
2022-12-08T03:48:55.737Z,3.7
2022-12-08T03:58:57.650Z,3.7
2022-12-08T04:08:59.526Z,3.7
2022-12-08T04:19:01.707Z,3.7
2022-12-08T04:29:03.460Z,3.7
2022-12-08T04:39:05.528Z,3.6
2022-12-08T04:59:10.374Z,3.6
2022-12-08T05:09:12.731Z,3.6
2022-12-08T05:19:14.707Z,3.6
2022-12-08T05:29:17.015Z,3.6
2022-12-08T05:39:19.529Z,3.6
2022-12-08T05:49:21.321Z,3.6
2022-12-08T05:59:23.707Z,3.6
2022-12-08T06:09:25.870Z,3.6
2022-12-08T06:19:27.715Z,3.6
2022-12-08T06:29:29.592Z,3.6
2022-12-08T06:39:31.333Z,3.6
2022-12-08T06:49:33.849Z,3.6
2022-12-08T06:59:35.581Z,3.5
2022-12-08T07:09:37.309Z,3.3
2022-12-08T07:19:39.174Z,3.3
2022-12-08T07:29:41.000Z,3.3
2022-12-08T07:39:43.276Z,3.3
2022-12-08T07:49:45.613Z,3.3
2022-12-08T07:59:47.802Z,3.4
2022-12-08T08:09:50.319Z,3.5
2022-12-08T08:19:52.790Z,3.5
2022-12-08T08:29:55.439Z,3.5
2022-12-08T08:39:57.743Z,3.5
2022-12-08T08:50:00.049Z,3.4
2022-12-08T09:00:02.638Z,3.5
2022-12-08T09:10:04.685Z,3.5
2022-12-08T09:20:06.596Z,3.6
2022-12-08T09:30:08.471Z,3.6
2022-12-08T09:40:10.964Z,3.6
2022-12-08T10:00:15.383Z,3.5
2022-12-08T10:10:17.101Z,3.5
2022-12-08T10:20:19.390Z,3.5
2022-12-08T10:50:25.825Z,3.4
2022-12-08T11:00:27.661Z,3.6
2022-12-08T11:10:29.971Z,3.6
2022-12-08T11:20:31.803Z,3.6
2022-12-08T11:30:33.731Z,3.6
2022-12-08T11:40:36.348Z,3.6
2022-12-08T11:50:38.086Z,3.7
2022-12-08T12:00:40.009Z,3.7
2022-12-08T12:10:42.207Z,3.7
2022-12-08T12:20:43.932Z,3.6
2022-12-08T12:30:46.118Z,3.7
2022-12-08T12:40:47.913Z,3.7
2022-12-08T12:50:50.376Z,3.7
2022-12-08T13:00:53.006Z,3.7
2022-12-08T13:10:55.462Z,3.7
2022-12-08T13:20:57.389Z,3.7
2022-12-08T13:31:00.023Z,3.7
2022-12-08T13:41:02.485Z,3.6
2022-12-08T14:01:06.499Z,3.6
2022-12-08T14:11:08.793Z,3.6
2022-12-08T14:21:21.302Z,3.6
2022-12-08T14:31:13.538Z,3.6
2022-12-08T14:41:16.039Z,3.6
2022-12-08T14:51:18.021Z,3.6
2022-12-08T15:01:20.248Z,3.6
2022-12-08T15:11:21.947Z,3.6
2022-12-08T15:21:23.880Z,3.5
2022-12-08T15:31:26.157Z,3.4
2022-12-08T15:41:28.369Z,3.4
2022-12-08T15:51:30.320Z,3.3
2022-12-08T16:01:33.024Z,3.3
2022-12-08T16:01:54.971Z,3.3
2022-12-08T16:12:05.107Z,3.3
2022-12-08T16:31:46.281Z,3.2
2022-12-08T16:41:48.181Z,3.1
2022-12-08T16:51:50.527Z,3.1
2022-12-08T17:01:52.946Z,3.1
2022-12-08T17:11:58.913Z,3.1
2022-12-08T17:21:56.940Z,3.1
2022-12-08T17:31:59.496Z,3
2022-12-08T17:42:01.356Z,2.9
2022-12-08T17:52:03.377Z,2.8
2022-12-08T18:02:05.280Z,2.8
2022-12-08T18:12:06.919Z,2.8
2022-12-08T18:22:08.759Z,2.8
2022-12-08T18:32:10.976Z,2.8
2022-12-08T18:42:13.263Z,2.7
2022-12-08T18:52:17.852Z,2.8
2022-12-08T19:02:17.614Z,2.7
2022-12-08T19:12:20.064Z,2.7
2022-12-08T19:22:21.860Z,2.6
2022-12-08T19:32:23.905Z,2.6
2022-12-08T19:42:25.887Z,2.6
2022-12-08T19:52:27.870Z,2.5
2022-12-08T20:02:30.261Z,2.4
2022-12-08T20:22:34.611Z,1.9
2022-12-08T20:32:37.263Z,1.8
2022-12-08T20:42:39.700Z,1.8
2022-12-08T20:52:41.784Z,1.6
2022-12-08T21:02:47.874Z,1.4
2022-12-08T21:12:46.043Z,1.5
2022-12-08T21:22:47.947Z,1.6
2022-12-08T21:32:50.081Z,1.7
2022-12-08T21:42:52.131Z,1.6
2022-12-08T21:52:54.083Z,1.4
2022-12-08T22:02:56.520Z,1.1
2022-12-08T22:12:58.187Z,1.1
2022-12-08T22:23:00.125Z,1.1
2022-12-08T22:33:01.639Z,1.2
2022-12-08T22:43:04.316Z,1.3
2022-12-08T22:53:06.648Z,1.4
2022-12-08T23:03:08.642Z,1.3
2022-12-08T23:13:11.169Z,1.2
2022-12-08T23:23:13.047Z,1.1
2022-12-08T23:33:15.226Z,0.8
2022-12-08T23:43:17.394Z,0.7
2022-12-08T23:53:19.651Z,0.8
